Strona główna
METAR-TAF:

METAR-TAF

Lotnisko :

New River Valley Airport

Dublin, Wirginia, Stany Zjednoczone

Szerokość geograficzna: 37-08N, Długość geograficzna: 080-41W, wysokość: 642 m

Aktualna obserwacja pogody

Raport powstał 22 minut temu, godzina 22:35 UTC
Wiatr 6 kt od północny zachód
Temperatura 23°C
Wilgotność 47%
Ciśnienie 1018 hPa
Widzialność: 16.1 km
Przerywane chmury na wysokości 7500 ft

METAR: KPSK 302235Z AUTO 31006KT 10SM BKN075 23/11 A3006 RMK AO2 T02330109

czas: 18:57 (22:57 UTC)


TAF: brakujący

Obserwacja i prognoza pogody dla ponad 4000 lotnisk (raport METAR i TAF).

Dostępne stacje oznaczono żółtymi i czerwonymi punktami na mapie.

Najedź kursorem aby zobaczyć nazwę stacji.

Kliknij aby zobaczyć obserwacje i prognozy pogody.

Aby zmienić mapę: kliknij na zielony przycisk z czarnym krzyżykiem, aby powiększyć; na zielony przycisk z myślnikiem, aby pomniejszyć; na zielone strzałki, aby przejść do map sąsiednich.


METAR-TAF: